sensor_id;sensor_type;location;lat;lon;timestamp;P1;durP1;ratioP1;P2;durP2;ratioP2
13445;SDS011;6795;51.232;3.764;2023-05-10T00:02:36;52.72;;;22.13;;
13445;SDS011;6795;51.232;3.764;2023-05-10T00:05:28;56.35;;;22.13;;
13445;SDS011;6795;51.232;3.764;2023-05-10T00:12:21;62.72;;;23.42;;
13445;SDS011;6795;51.232;3.764;2023-05-10T00:15:50;58.95;;;23.10;;
13445;SDS011;6795;51.232;3.764;2023-05-10T00:18:46;63.95;;;23.25;;
13445;SDS011;6795;51.232;3.764;2023-05-10T00:21:59;62.65;;;23.30;;
13445;SDS011;6795;51.232;3.764;2023-05-10T00:25:10;56.97;;;22.27;;
13445;SDS011;6795;51.232;3.764;2023-05-10T00:35:01;67.97;;;24.58;;
13445;SDS011;6795;51.232;3.764;2023-05-10T00:37:49;73.32;;;27.17;;
13445;SDS011;6795;51.232;3.764;2023-05-10T00:41:15;83.00;;;28.00;;
13445;SDS011;6795;51.232;3.764;2023-05-10T00:44:20;76.50;;;28.58;;
13445;SDS011;6795;51.232;3.764;2023-05-10T00:47:49;80.20;;;29.83;;
13445;SDS011;6795;51.232;3.764;2023-05-10T00:50:58;86.50;;;32.67;;
13445;SDS011;6795;51.232;3.764;2023-05-10T00:54:02;87.57;;;33.92;;
13445;SDS011;6795;51.232;3.764;2023-05-10T00:56:56;80.63;;;32.15;;
13445;SDS011;6795;51.232;3.764;2023-05-10T00:59:48;93.93;;;33.17;;
13445;SDS011;6795;51.232;3.764;2023-05-10T01:03:12;90.80;;;32.33;;
13445;SDS011;6795;51.232;3.764;2023-05-10T01:26:49;109.15;;;38.05;;
13445;SDS011;6795;51.232;3.764;2023-05-10T01:29:56;112.78;;;37.38;;
13445;SDS011;6795;51.232;3.764;2023-05-10T01:33:16;113.93;;;36.55;;
13445;SDS011;6795;51.232;3.764;2023-05-10T01:36:12;117.43;;;38.60;;
13445;SDS011;6795;51.232;3.764;2023-05-10T01:39:36;122.97;;;41.47;;
13445;SDS011;6795;51.232;3.764;2023-05-10T01:42:46;130.02;;;40.67;;
13445;SDS011;6795;51.232;3.764;2023-05-10T01:45:56;128.10;;;38.05;;
13445;SDS011;6795;51.232;3.764;2023-05-10T01:59:57;119.40;;;38.65;;
13445;SDS011;6795;51.232;3.764;2023-05-10T02:03:05;103.90;;;34.55;;
13445;SDS011;6795;51.232;3.764;2023-05-10T02:06:17;111.07;;;35.42;;
13445;SDS011;6795;51.232;3.764;2023-05-10T02:09:37;115.13;;;34.97;;
13445;SDS011;6795;51.232;3.764;2023-05-10T02:12:39;119.78;;;37.20;;
13445;SDS011;6795;51.232;3.764;2023-05-10T02:26:06;98.53;;;32.30;;
13445;SDS011;6795;51.232;3.764;2023-05-10T02:29:02;113.15;;;34.08;;
13445;SDS011;6795;51.232;3.764;2023-05-10T02:32:15;107.47;;;33.45;;
13445;SDS011;6795;51.232;3.764;2023-05-10T02:35:11;106.78;;;32.58;;
13445;SDS011;6795;51.232;3.764;2023-05-10T02:38:11;112.80;;;32.53;;
13445;SDS011;6795;51.232;3.764;2023-05-10T02:52:42;103.35;;;31.42;;
13445;SDS011;6795;51.232;3.764;2023-05-10T02:56:08;90.53;;;29.05;;
13445;SDS011;6795;51.232;3.764;2023-05-10T02:59:26;83.30;;;28.63;;
13445;SDS011;6795;51.232;3.764;2023-05-10T03:02:30;93.57;;;30.17;;
13445;SDS011;6795;51.232;3.764;2023-05-10T03:05:32;92.20;;;31.48;;
13445;SDS011;6795;51.232;3.764;2023-05-10T03:08:37;96.30;;;30.38;;
13445;SDS011;6795;51.232;3.764;2023-05-10T03:11:39;96.15;;;30.75;;
13445;SDS011;6795;51.232;3.764;2023-05-10T03:15:11;94.35;;;30.92;;
13445;SDS011;6795;51.232;3.764;2023-05-10T03:18:50;97.65;;;32.17;;
13445;SDS011;6795;51.232;3.764;2023-05-10T03:21:31;107.30;;;33.53;;
13445;SDS011;6795;51.232;3.764;2023-05-10T03:28:55;107.13;;;35.15;;
13445;SDS011;6795;51.232;3.764;2023-05-10T03:32:17;108.45;;;34.58;;
13445;SDS011;6795;51.232;3.764;2023-05-10T03:35:38;103.15;;;34.88;;
13445;SDS011;6795;51.232;3.764;2023-05-10T03:38:48;98.80;;;34.85;;
13445;SDS011;6795;51.232;3.764;2023-05-10T03:42:22;102.72;;;36.90;;
13445;SDS011;6795;51.232;3.764;2023-05-10T03:48:51;101.25;;;37.00;;
13445;SDS011;6795;51.232;3.764;2023-05-10T03:51:43;104.72;;;37.15;;
13445;SDS011;6795;51.232;3.764;2023-05-10T03:55:11;88.35;;;33.90;;
13445;SDS011;6795;51.232;3.764;2023-05-10T03:58:10;84.80;;;34.13;;
13445;SDS011;6795;51.232;3.764;2023-05-10T04:01:29;95.65;;;36.67;;
13445;SDS011;6795;51.232;3.764;2023-05-10T04:08:25;81.00;;;33.65;;
13445;SDS011;6795;51.232;3.764;2023-05-10T04:12:14;89.30;;;36.40;;
13445;SDS011;6795;51.232;3.764;2023-05-10T04:15:08;82.75;;;34.35;;
13445;SDS011;6795;51.232;3.764;2023-05-10T04:18:07;78.47;;;33.85;;
13445;SDS011;6795;51.232;3.764;2023-05-10T04:35:18;65.97;;;30.90;;
13445;SDS011;6795;51.232;3.764;2023-05-10T04:38:25;60.83;;;30.17;;
13445;SDS011;6795;51.232;3.764;2023-05-10T04:41:42;56.00;;;30.17;;
13445;SDS011;6795;51.232;3.764;2023-05-10T04:44:37;62.20;;;31.90;;
13445;SDS011;6795;51.232;3.764;2023-05-10T04:47:54;59.53;;;31.45;;
13445;SDS011;6795;51.232;3.764;2023-05-10T04:54:25;54.72;;;29.10;;
13445;SDS011;6795;51.232;3.764;2023-05-10T05:01:32;56.45;;;31.77;;
13445;SDS011;6795;51.232;3.764;2023-05-10T05:04:29;55.97;;;33.38;;
13445;SDS011;6795;51.232;3.764;2023-05-10T05:07:34;50.35;;;30.15;;
13445;SDS011;6795;51.232;3.764;2023-05-10T05:25:29;37.25;;;25.33;;
13445;SDS011;6795;51.232;3.764;2023-05-10T05:28:38;35.08;;;24.73;;
13445;SDS011;6795;51.232;3.764;2023-05-10T05:31:54;42.58;;;26.30;;
13445;SDS011;6795;51.232;3.764;2023-05-10T05:34:48;40.80;;;25.98;;
13445;SDS011;6795;51.232;3.764;2023-05-10T05:38:04;40.75;;;26.45;;
13445;SDS011;6795;51.232;3.764;2023-05-10T05:47:57;39.42;;;25.58;;
13445;SDS011;6795;51.232;3.764;2023-05-10T05:51:26;38.47;;;26.52;;
13445;SDS011;6795;51.232;3.764;2023-05-10T05:54:32;40.35;;;26.50;;
13445;SDS011;6795;51.232;3.764;2023-05-10T05:57:32;37.45;;;25.52;;
13445;SDS011;6795;51.232;3.764;2023-05-10T06:01:11;30.92;;;22.50;;
13445;SDS011;6795;51.232;3.764;2023-05-10T06:08:06;30.88;;;21.65;;
13445;SDS011;6795;51.232;3.764;2023-05-10T06:11:09;25.55;;;18.42;;
13445;SDS011;6795;51.232;3.764;2023-05-10T06:14:07;24.83;;;18.27;;
13445;SDS011;6795;51.232;3.764;2023-05-10T06:17:33;26.08;;;17.45;;
13445;SDS011;6795;51.232;3.764;2023-05-10T06:20:45;23.52;;;17.73;;
13445;SDS011;6795;51.232;3.764;2023-05-10T06:27:27;18.65;;;14.18;;
13445;SDS011;6795;51.232;3.764;2023-05-10T06:30:41;17.42;;;12.30;;
13445;SDS011;6795;51.232;3.764;2023-05-10T06:33:56;12.73;;;10.98;;
13445;SDS011;6795;51.232;3.764;2023-05-10T06:40:51;13.93;;;9.18;;
13445;SDS011;6795;51.232;3.764;2023-05-10T06:43:55;11.88;;;9.20;;
13445;SDS011;6795;51.232;3.764;2023-05-10T06:47:08;9.23;;;8.00;;
13445;SDS011;6795;51.232;3.764;2023-05-10T06:50:32;9.98;;;8.98;;
13445;SDS011;6795;51.232;3.764;2023-05-10T06:53:53;9.38;;;8.48;;
13445;SDS011;6795;51.232;3.764;2023-05-10T07:00:42;11.23;;;7.63;;
13445;SDS011;6795;51.232;3.764;2023-05-10T07:03:51;8.27;;;7.47;;
13445;SDS011;6795;51.232;3.764;2023-05-10T07:06:57;12.07;;;7.03;;
13445;SDS011;6795;51.232;3.764;2023-05-10T07:10:23;8.23;;;7.35;;
13445;SDS011;6795;51.232;3.764;2023-05-10T07:17:34;7.97;;;6.10;;
13445;SDS011;6795;51.232;3.764;2023-05-10T07:20:34;8.00;;;6.07;;
13445;SDS011;6795;51.232;3.764;2023-05-10T07:23:44;7.57;;;6.80;;
13445;SDS011;6795;51.232;3.764;2023-05-10T07:27:15;7.05;;;6.45;;
13445;SDS011;6795;51.232;3.764;2023-05-10T07:30:20;7.72;;;7.03;;
13445;SDS011;6795;51.232;3.764;2023-05-10T07:33:34;7.95;;;6.95;;
13445;SDS011;6795;51.232;3.764;2023-05-10T07:37:05;7.60;;;6.82;;
13445;SDS011;6795;51.232;3.764;2023-05-10T07:40:13;7.30;;;5.57;;
13445;SDS011;6795;51.232;3.764;2023-05-10T07:43:37;6.38;;;5.78;;
13445;SDS011;6795;51.232;3.764;2023-05-10T07:47:22;5.10;;;4.55;;
13445;SDS011;6795;51.232;3.764;2023-05-10T07:50:44;5.30;;;4.75;;
13445;SDS011;6795;51.232;3.764;2023-05-10T07:53:47;3.95;;;3.65;;
13445;SDS011;6795;51.232;3.764;2023-05-10T07:57:06;5.50;;;4.82;;
13445;SDS011;6795;51.232;3.764;2023-05-10T08:00:25;6.45;;;5.38;;
13445;SDS011;6795;51.232;3.764;2023-05-10T08:10:55;6.63;;;4.05;;
13445;SDS011;6795;51.232;3.764;2023-05-10T08:14:54;8.93;;;3.88;;
13445;SDS011;6795;51.232;3.764;2023-05-10T08:17:36;4.00;;;3.70;;
13445;SDS011;6795;51.232;3.764;2023-05-10T08:20:45;3.75;;;3.40;;
13445;SDS011;6795;51.232;3.764;2023-05-10T08:27:31;2.67;;;2.45;;
13445;SDS011;6795;51.232;3.764;2023-05-10T08:31:16;2.10;;;1.85;;
13445;SDS011;6795;51.232;3.764;2023-05-10T08:33:57;1.77;;;1.35;;
13445;SDS011;6795;51.232;3.764;2023-05-10T08:37:11;2.45;;;1.90;;
13445;SDS011;6795;51.232;3.764;2023-05-10T08:44:15;1.42;;;1.33;;
13445;SDS011;6795;51.232;3.764;2023-05-10T08:47:24;1.67;;;1.58;;
13445;SDS011;6795;51.232;3.764;2023-05-10T08:50:38;1.35;;;1.00;;
13445;SDS011;6795;51.232;3.764;2023-05-10T08:53:38;1.67;;;1.58;;
13445;SDS011;6795;51.232;3.764;2023-05-10T08:56:48;2.72;;;2.53;;
13445;SDS011;6795;51.232;3.764;2023-05-10T09:00:12;5.95;;;4.05;;
13445;SDS011;6795;51.232;3.764;2023-05-10T09:03:30;4.13;;;3.50;;
13445;SDS011;6795;51.232;3.764;2023-05-10T09:06:31;3.45;;;3.15;;
13445;SDS011;6795;51.232;3.764;2023-05-10T09:14:06;4.45;;;3.67;;
13445;SDS011;6795;51.232;3.764;2023-05-10T09:21:04;4.20;;;3.40;;
13445;SDS011;6795;51.232;3.764;2023-05-10T09:24:27;3.45;;;3.20;;
13445;SDS011;6795;51.232;3.764;2023-05-10T09:27:37;3.83;;;3.47;;
13445;SDS011;6795;51.232;3.764;2023-05-10T09:31:02;4.70;;;3.63;;
13445;SDS011;6795;51.232;3.764;2023-05-10T09:34:31;4.65;;;4.13;;
13445;SDS011;6795;51.232;3.764;2023-05-10T09:37:36;3.90;;;3.42;;
13445;SDS011;6795;51.232;3.764;2023-05-10T09:44:24;2.75;;;2.60;;
13445;SDS011;6795;51.232;3.764;2023-05-10T09:47:27;1.75;;;1.65;;
13445;SDS011;6795;51.232;3.764;2023-05-10T09:50:48;2.28;;;2.15;;
13445;SDS011;6795;51.232;3.764;2023-05-10T09:54:11;4.35;;;2.55;;
13445;SDS011;6795;51.232;3.764;2023-05-10T09:57:28;2.75;;;2.55;;
13445;SDS011;6795;51.232;3.764;2023-05-10T10:01:29;3.72;;;3.40;;
13445;SDS011;6795;51.232;3.764;2023-05-10T10:04:27;5.70;;;5.20;;
13445;SDS011;6795;51.232;3.764;2023-05-10T10:11:01;10.68;;;9.15;;
13445;SDS011;6795;51.232;3.764;2023-05-10T10:14:09;10.88;;;9.75;;
13445;SDS011;6795;51.232;3.764;2023-05-10T10:17:42;11.43;;;10.23;;
13445;SDS011;6795;51.232;3.764;2023-05-10T10:20:53;16.65;;;9.95;;
13445;SDS011;6795;51.232;3.764;2023-05-10T10:24:06;13.23;;;10.07;;
13445;SDS011;6795;51.232;3.764;2023-05-10T10:27:35;12.40;;;10.45;;
13445;SDS011;6795;51.232;3.764;2023-05-10T10:30:49;14.15;;;10.85;;
13445;SDS011;6795;51.232;3.764;2023-05-10T10:34:02;12.35;;;10.25;;
13445;SDS011;6795;51.232;3.764;2023-05-10T10:41:08;6.03;;;5.43;;
13445;SDS011;6795;51.232;3.764;2023-05-10T10:44:42;4.03;;;3.72;;
13445;SDS011;6795;51.232;3.764;2023-05-10T10:52:12;12.10;;;9.68;;
13445;SDS011;6795;51.232;3.764;2023-05-10T10:55:17;15.13;;;10.65;;
13445;SDS011;6795;51.232;3.764;2023-05-10T11:06:37;13.15;;;11.75;;
13445;SDS011;6795;51.232;3.764;2023-05-10T11:09:45;15.40;;;12.70;;
13445;SDS011;6795;51.232;3.764;2023-05-10T11:13:08;20.80;;;14.30;;
13445;SDS011;6795;51.232;3.764;2023-05-10T11:16:16;18.95;;;14.80;;
13445;SDS011;6795;51.232;3.764;2023-05-10T11:19:53;16.45;;;14.23;;
13445;SDS011;6795;51.232;3.764;2023-05-10T11:23:17;19.00;;;14.70;;
13445;SDS011;6795;51.232;3.764;2023-05-10T11:26:30;18.52;;;14.90;;
13445;SDS011;6795;51.232;3.764;2023-05-10T11:29:36;22.13;;;16.73;;
13445;SDS011;6795;51.232;3.764;2023-05-10T11:36:25;27.13;;;19.42;;
13445;SDS011;6795;51.232;3.764;2023-05-10T11:39:28;30.23;;;21.30;;
13445;SDS011;6795;51.232;3.764;2023-05-10T11:42:29;30.58;;;21.23;;
13445;SDS011;6795;51.232;3.764;2023-05-10T11:45:42;35.28;;;23.55;;
13445;SDS011;6795;51.232;3.764;2023-05-10T11:52:11;33.00;;;24.13;;
13445;SDS011;6795;51.232;3.764;2023-05-10T11:55:35;34.50;;;24.08;;
13445;SDS011;6795;51.232;3.764;2023-05-10T11:59:34;32.80;;;23.23;;
13445;SDS011;6795;51.232;3.764;2023-05-10T12:02:15;34.67;;;24.48;;
13445;SDS011;6795;51.232;3.764;2023-05-10T12:05:26;31.05;;;23.48;;
13445;SDS011;6795;51.232;3.764;2023-05-10T12:09:09;35.78;;;25.00;;
13445;SDS011;6795;51.232;3.764;2023-05-10T12:12:31;47.42;;;26.52;;
13445;SDS011;6795;51.232;3.764;2023-05-10T12:15:38;37.70;;;24.80;;
13445;SDS011;6795;51.232;3.764;2023-05-10T12:21:02;35.97;;;24.33;;
13445;SDS011;6795;51.232;3.764;2023-05-10T12:22:23;39.38;;;24.50;;
13445;SDS011;6795;51.232;3.764;2023-05-10T12:25:37;36.22;;;24.42;;
13445;SDS011;6795;51.232;3.764;2023-05-10T12:40:37;43.97;;;25.60;;
13445;SDS011;6795;51.232;3.764;2023-05-10T12:44:41;37.20;;;23.92;;
13445;SDS011;6795;51.232;3.764;2023-05-10T12:48:07;38.90;;;24.73;;
13445;SDS011;6795;51.232;3.764;2023-05-10T12:51:19;36.22;;;24.58;;
13445;SDS011;6795;51.232;3.764;2023-05-10T13:02:24;37.80;;;24.92;;
13445;SDS011;6795;51.232;3.764;2023-05-10T13:05:41;31.33;;;20.52;;
13445;SDS011;6795;51.232;3.764;2023-05-10T13:09:11;31.15;;;19.73;;
13445;SDS011;6795;51.232;3.764;2023-05-10T13:13:19;34.55;;;20.67;;
13445;SDS011;6795;51.232;3.764;2023-05-10T13:23:50;25.08;;;14.77;;
13445;SDS011;6795;51.232;3.764;2023-05-10T13:26:49;26.63;;;14.30;;
13445;SDS011;6795;51.232;3.764;2023-05-10T13:29:59;24.75;;;14.73;;
13445;SDS011;6795;51.232;3.764;2023-05-10T13:32:56;22.67;;;13.65;;
13445;SDS011;6795;51.232;3.764;2023-05-10T13:40:07;25.05;;;13.65;;
13445;SDS011;6795;51.232;3.764;2023-05-10T13:43:12;23.48;;;12.40;;
13445;SDS011;6795;51.232;3.764;2023-05-10T13:46:49;17.02;;;10.57;;
13445;SDS011;6795;51.232;3.764;2023-05-10T13:50:47;19.85;;;9.82;;
13445;SDS011;6795;51.232;3.764;2023-05-10T13:53:50;19.45;;;9.90;;
13445;SDS011;6795;51.232;3.764;2023-05-10T13:56:50;14.43;;;8.75;;
13445;SDS011;6795;51.232;3.764;2023-05-10T14:00:35;15.60;;;8.93;;
13445;SDS011;6795;51.232;3.764;2023-05-10T14:07:28;19.02;;;9.30;;
13445;SDS011;6795;51.232;3.764;2023-05-10T14:18:17;17.88;;;8.98;;
13445;SDS011;6795;51.232;3.764;2023-05-10T14:21:23;19.85;;;8.02;;
13445;SDS011;6795;51.232;3.764;2023-05-10T14:24:49;14.57;;;7.57;;
13445;SDS011;6795;51.232;3.764;2023-05-10T14:28:04;17.02;;;7.22;;
13445;SDS011;6795;51.232;3.764;2023-05-10T14:35:22;12.50;;;6.72;;
13445;SDS011;6795;51.232;3.764;2023-05-10T14:38:48;17.67;;;8.52;;
13445;SDS011;6795;51.232;3.764;2023-05-10T14:41:59;14.18;;;7.47;;
13445;SDS011;6795;51.232;3.764;2023-05-10T14:45:18;17.38;;;9.30;;
13445;SDS011;6795;51.232;3.764;2023-05-10T14:48:40;12.05;;;7.55;;
13445;SDS011;6795;51.232;3.764;2023-05-10T14:51:58;21.45;;;8.93;;
13445;SDS011;6795;51.232;3.764;2023-05-10T14:55:02;17.95;;;8.55;;
13445;SDS011;6795;51.232;3.764;2023-05-10T14:58:28;15.02;;;7.90;;
13445;SDS011;6795;51.232;3.764;2023-05-10T15:01:48;16.90;;;8.07;;
13445;SDS011;6795;51.232;3.764;2023-05-10T15:05:18;18.17;;;9.25;;
13445;SDS011;6795;51.232;3.764;2023-05-10T15:13:06;16.40;;;8.70;;
13445;SDS011;6795;51.232;3.764;2023-05-10T15:16:27;18.13;;;9.02;;
13445;SDS011;6795;51.232;3.764;2023-05-10T15:19:44;16.63;;;8.68;;
13445;SDS011;6795;51.232;3.764;2023-05-10T15:22:49;16.65;;;8.48;;
13445;SDS011;6795;51.232;3.764;2023-05-10T15:25:52;23.45;;;8.85;;
13445;SDS011;6795;51.232;3.764;2023-05-10T15:43:05;17.15;;;7.40;;
13445;SDS011;6795;51.232;3.764;2023-05-10T15:45:54;17.40;;;7.43;;
13445;SDS011;6795;51.232;3.764;2023-05-10T15:49:01;16.27;;;7.93;;
13445;SDS011;6795;51.232;3.764;2023-05-10T15:52:10;15.23;;;7.00;;
13445;SDS011;6795;51.232;3.764;2023-05-10T15:55:10;14.27;;;6.85;;
13445;SDS011;6795;51.232;3.764;2023-05-10T15:58:50;18.90;;;7.47;;
13445;SDS011;6795;51.232;3.764;2023-05-10T16:01:59;12.93;;;6.55;;
13445;SDS011;6795;51.232;3.764;2023-05-10T16:05:24;11.82;;;6.90;;
13445;SDS011;6795;51.232;3.764;2023-05-10T16:08:29;17.75;;;7.57;;
13445;SDS011;6795;51.232;3.764;2023-05-10T16:12:16;16.23;;;6.65;;
13445;SDS011;6795;51.232;3.764;2023-05-10T16:19:07;14.63;;;5.35;;
13445;SDS011;6795;51.232;3.764;2023-05-10T16:22:12;18.80;;;4.80;;
13445;SDS011;6795;51.232;3.764;2023-05-10T16:25:29;14.15;;;5.45;;
13445;SDS011;6795;51.232;3.764;2023-05-10T16:28:41;14.35;;;5.18;;
13445;SDS011;6795;51.232;3.764;2023-05-10T16:32:20;16.33;;;4.03;;
13445;SDS011;6795;51.232;3.764;2023-05-10T16:39:26;13.48;;;4.38;;
13445;SDS011;6795;51.232;3.764;2023-05-10T16:42:29;14.05;;;4.38;;
13445;SDS011;6795;51.232;3.764;2023-05-10T16:49:29;10.30;;;4.40;;
13445;SDS011;6795;51.232;3.764;2023-05-10T16:53:12;9.75;;;3.53;;
13445;SDS011;6795;51.232;3.764;2023-05-10T16:56:39;8.90;;;3.75;;
13445;SDS011;6795;51.232;3.764;2023-05-10T17:00:26;13.98;;;4.05;;
13445;SDS011;6795;51.232;3.764;2023-05-10T17:03:49;15.75;;;4.90;;
13445;SDS011;6795;51.232;3.764;2023-05-10T17:07:18;14.27;;;4.50;;
13445;SDS011;6795;51.232;3.764;2023-05-10T17:10:30;15.27;;;4.55;;
13445;SDS011;6795;51.232;3.764;2023-05-10T17:14:15;17.50;;;5.30;;
13445;SDS011;6795;51.232;3.764;2023-05-10T17:17:16;21.00;;;4.00;;
13445;SDS011;6795;51.232;3.764;2023-05-10T17:20:25;9.95;;;4.50;;
13445;SDS011;6795;51.232;3.764;2023-05-10T17:23:31;10.73;;;3.90;;
13445;SDS011;6795;51.232;3.764;2023-05-10T17:26:57;15.98;;;6.47;;
13445;SDS011;6795;51.232;3.764;2023-05-10T17:30:17;14.85;;;4.75;;
13445;SDS011;6795;51.232;3.764;2023-05-10T17:33:35;17.50;;;4.07;;
13445;SDS011;6795;51.232;3.764;2023-05-10T17:37:03;10.32;;;4.00;;
13445;SDS011;6795;51.232;3.764;2023-05-10T17:40:22;13.93;;;4.65;;
13445;SDS011;6795;51.232;3.764;2023-05-10T17:43:26;27.30;;;5.93;;
13445;SDS011;6795;51.232;3.764;2023-05-10T17:50:34;13.60;;;4.65;;
13445;SDS011;6795;51.232;3.764;2023-05-10T17:54:19;30.63;;;6.85;;
13445;SDS011;6795;51.232;3.764;2023-05-10T17:57:20;21.38;;;5.82;;
13445;SDS011;6795;51.232;3.764;2023-05-10T18:00:41;48.67;;;8.68;;
13445;SDS011;6795;51.232;3.764;2023-05-10T18:14:57;19.85;;;5.43;;
13445;SDS011;6795;51.232;3.764;2023-05-10T18:18:05;18.67;;;5.68;;
13445;SDS011;6795;51.232;3.764;2023-05-10T18:21:38;17.60;;;5.88;;
13445;SDS011;6795;51.232;3.764;2023-05-10T18:24:37;16.42;;;6.07;;
13445;SDS011;6795;51.232;3.764;2023-05-10T18:28:07;19.92;;;5.13;;
13445;SDS011;6795;51.232;3.764;2023-05-10T18:31:33;16.02;;;5.80;;
13445;SDS011;6795;51.232;3.764;2023-05-10T18:34:51;17.23;;;6.45;;
13445;SDS011;6795;51.232;3.764;2023-05-10T18:38:08;17.35;;;5.68;;
13445;SDS011;6795;51.232;3.764;2023-05-10T18:41:51;17.52;;;5.93;;
13445;SDS011;6795;51.232;3.764;2023-05-10T18:45:40;15.10;;;5.70;;
13445;SDS011;6795;51.232;3.764;2023-05-10T19:02:46;12.07;;;5.13;;
13445;SDS011;6795;51.232;3.764;2023-05-10T19:05:51;17.33;;;6.18;;
13445;SDS011;6795;51.232;3.764;2023-05-10T19:13:23;17.30;;;6.47;;
13445;SDS011;6795;51.232;3.764;2023-05-10T19:16:15;17.98;;;6.38;;
13445;SDS011;6795;51.232;3.764;2023-05-10T19:22:28;23.23;;;7.30;;
13445;SDS011;6795;51.232;3.764;2023-05-10T19:25:44;16.77;;;7.28;;
13445;SDS011;6795;51.232;3.764;2023-05-10T19:29:03;17.80;;;7.15;;
13445;SDS011;6795;51.232;3.764;2023-05-10T19:32:20;23.00;;;8.00;;
13445;SDS011;6795;51.232;3.764;2023-05-10T19:35:51;18.23;;;6.35;;
13445;SDS011;6795;51.232;3.764;2023-05-10T19:39:08;22.10;;;8.73;;
13445;SDS011;6795;51.232;3.764;2023-05-10T19:42:35;21.80;;;7.70;;
13445;SDS011;6795;51.232;3.764;2023-05-10T19:45:44;22.65;;;8.27;;
13445;SDS011;6795;51.232;3.764;2023-05-10T19:49:15;16.55;;;7.68;;
13445;SDS011;6795;51.232;3.764;2023-05-10T19:52:18;33.22;;;9.50;;
13445;SDS011;6795;51.232;3.764;2023-05-10T19:55:53;25.15;;;8.30;;
13445;SDS011;6795;51.232;3.764;2023-05-10T19:59:10;18.80;;;8.02;;
13445;SDS011;6795;51.232;3.764;2023-05-10T20:02:54;22.48;;;8.75;;
13445;SDS011;6795;51.232;3.764;2023-05-10T20:05:44;31.25;;;10.65;;
13445;SDS011;6795;51.232;3.764;2023-05-10T20:09:13;25.25;;;10.32;;
13445;SDS011;6795;51.232;3.764;2023-05-10T20:12:27;27.30;;;9.73;;
13445;SDS011;6795;51.232;3.764;2023-05-10T20:15:44;18.58;;;9.40;;
13445;SDS011;6795;51.232;3.764;2023-05-10T20:18:46;33.00;;;11.18;;
13445;SDS011;6795;51.232;3.764;2023-05-10T20:21:49;28.30;;;12.23;;
13445;SDS011;6795;51.232;3.764;2023-05-10T20:25:04;24.42;;;12.90;;
13445;SDS011;6795;51.232;3.764;2023-05-10T21:06:31;34.55;;;15.65;;
13445;SDS011;6795;51.232;3.764;2023-05-10T21:09:39;27.17;;;13.48;;
13445;SDS011;6795;51.232;3.764;2023-05-10T21:13:00;40.33;;;14.65;;
13445;SDS011;6795;51.232;3.764;2023-05-10T21:16:39;24.33;;;13.75;;
13445;SDS011;6795;51.232;3.764;2023-05-10T21:19:42;32.47;;;14.25;;
13445;SDS011;6795;51.232;3.764;2023-05-10T21:29:21;35.72;;;15.18;;
13445;SDS011;6795;51.232;3.764;2023-05-10T21:32:19;40.58;;;15.60;;
13445;SDS011;6795;51.232;3.764;2023-05-10T21:35:31;33.95;;;14.00;;
13445;SDS011;6795;51.232;3.764;2023-05-10T21:38:31;35.42;;;15.68;;
13445;SDS011;6795;51.232;3.764;2023-05-10T21:41:27;32.90;;;15.45;;
13445;SDS011;6795;51.232;3.764;2023-05-10T21:45:09;35.03;;;15.93;;
13445;SDS011;6795;51.232;3.764;2023-05-10T21:48:07;34.50;;;16.60;;
13445;SDS011;6795;51.232;3.764;2023-05-10T21:51:36;37.33;;;16.90;;
13445;SDS011;6795;51.232;3.764;2023-05-10T21:54:40;39.83;;;17.05;;
13445;SDS011;6795;51.232;3.764;2023-05-10T21:58:04;39.22;;;16.85;;
13445;SDS011;6795;51.232;3.764;2023-05-10T22:35:11;42.70;;;18.83;;
13445;SDS011;6795;51.232;3.764;2023-05-10T22:38:17;45.85;;;20.75;;
13445;SDS011;6795;51.232;3.764;2023-05-10T22:42:21;48.42;;;22.42;;
13445;SDS011;6795;51.232;3.764;2023-05-10T22:45:18;36.95;;;18.83;;
13445;SDS011;6795;51.232;3.764;2023-05-10T22:48:20;50.72;;;19.30;;
13445;SDS011;6795;51.232;3.764;2023-05-10T22:58:32;47.78;;;23.05;;
13445;SDS011;6795;51.232;3.764;2023-05-10T23:01:30;44.72;;;22.05;;
13445;SDS011;6795;51.232;3.764;2023-05-10T23:04:34;49.78;;;23.92;;
13445;SDS011;6795;51.232;3.764;2023-05-10T23:07:39;45.72;;;24.25;;
13445;SDS011;6795;51.232;3.764;2023-05-10T23:10:58;55.72;;;30.15;;
13445;SDS011;6795;51.232;3.764;2023-05-10T23:13:56;54.03;;;27.80;;
13445;SDS011;6795;51.232;3.764;2023-05-10T23:17:14;56.30;;;28.50;;
13445;SDS011;6795;51.232;3.764;2023-05-10T23:20:15;56.90;;;27.80;;
13445;SDS011;6795;51.232;3.764;2023-05-10T23:23:15;59.85;;;30.15;;
13445;SDS011;6795;51.232;3.764;2023-05-10T23:26:47;58.85;;;26.20;;
13445;SDS011;6795;51.232;3.764;2023-05-10T23:33:23;57.15;;;28.00;;
13445;SDS011;6795;51.232;3.764;2023-05-10T23:36:56;48.00;;;26.13;;
13445;SDS011;6795;51.232;3.764;2023-05-10T23:40:28;46.28;;;24.88;;
13445;SDS011;6795;51.232;3.764;2023-05-10T23:43:32;46.40;;;25.50;;
13445;SDS011;6795;51.232;3.764;2023-05-10T23:46:42;49.03;;;25.92;;
13445;SDS011;6795;51.232;3.764;2023-05-10T23:50:01;44.08;;;25.58;;
13445;SDS011;6795;51.232;3.764;2023-05-10T23:53:17;43.70;;;24.50;;
13445;SDS011;6795;51.232;3.764;2023-05-10T23:56:27;42.35;;;24.50;;
